KLOL

Derby Field Airport

Lovelock, Nevada, USA
METAR KLOL 240153Z AUTO 31013KT 10SM SCT100 SCT120 23/06 A2990 RMK AO2 SLP092 T02330056
Observed Flight Rules
May-24 @ 01:53 UTC (18 minutes ago) Visual Flight Rules
Wind Visibility Clouds
310° at 13 knots 10 miles
  • Scattered at 10,000' AGL
  • Scattered at 12,000' AGL
Temperatures Readings
Current 23°C / 73°F
Dewpoint 6°C / 43°F
Humidity 33%
Altimeter 29.9" Hg
Pressure 1009.2 hPa
Elevation 1189
METAR KLOL 240153Z AUTO 31013KT 10SM SCT100 SCT120 23/06 A2990 RMK AO2 SLP092 T02330056
Observed Flight Rules
May-24 @ 01:53 UTC
(18 minutes ago)
VFR
Wind Visibility
310° at 13 knots 10 miles
Clouds
  • Scattered at 10,000' AGL
  • Scattered at 12,000' AGL
Temperature Dewpoint
23°C / 73°F 6°C / 43°F
Humidity Altimeter Pressure
33% 29.9" Hg 1009.2 hPa